Time;durP1;ratioP1;P1;durP2;ratioP2;P2;SDS_P1;SDS_P2;PMS_P1;PMS_P2;Temp;Humidity;BMP_temperature;BMP_pressure;BME280_temperature;BME280_humidity;BME280_pressure;Samples;Min_cycle;Max_cycle;Signal;HPM_P1;HPM_P2
2021/12/09 00:00:11;;;;;;;;;;;1.3;82.8;;;;;;;;;
2021/12/09 00:05:08;;;;;;;;;;;1.3;83.0;;;;;;;;;
2021/12/09 00:10:09;;;;;;;;;;;1.2;83.4;;;;;;;;;
2021/12/09 00:15:08;;;;;;;;;;;1.2;83.3;;;;;;;;;
2021/12/09 00:20:08;;;;;;;;;;;1.3;83.0;;;;;;;;;
2021/12/09 00:25:08;;;;;;;;;;;1.3;83.5;;;;;;;;;
2021/12/09 00:30:09;;;;;;;;;;;1.4;82.9;;;;;;;;;
2021/12/09 00:35:08;;;;;;;;;;;1.3;83.1;;;;;;;;;
2021/12/09 00:40:08;;;;;;;;;;;1.3;83.4;;;;;;;;;
2021/12/09 00:45:08;;;;;;;;;;;1.4;82.9;;;;;;;;;
2021/12/09 00:50:08;;;;;;;;;;;1.4;83.3;;;;;;;;;
2021/12/09 00:55:08;;;;;;;;;;;1.3;83.0;;;;;;;;;
2021/12/09 01:00:10;;;;;;;;;;;1.3;83.5;;;;;;;;;
2021/12/09 01:05:09;;;;;;;;;;;1.3;83.8;;;;;;;;;
2021/12/09 01:10:09;;;;;;;;;;;1.3;83.6;;;;;;;;;
2021/12/09 01:15:08;;;;;;;;;;;1.3;83.9;;;;;;;;;
2021/12/09 01:20:09;;;;;;;;;;;1.3;83.5;;;;;;;;;
2021/12/09 01:25:08;;;;;;;;;;;1.3;83.8;;;;;;;;;
2021/12/09 01:30:12;;;;;;;;;;;1.2;83.9;;;;;;;;;
2021/12/09 01:35:08;;;;;;;;;;;1.1;84.3;;;;;;;;;
2021/12/09 01:40:08;;;;;;;;;;;1.2;84.4;;;;;;;;;
2021/12/09 01:45:08;;;;;;;;;;;1.2;84.5;;;;;;;;;
2021/12/09 01:50:09;;;;;;;;;;;1.2;84.7;;;;;;;;;
2021/12/09 01:55:08;;;;;;;;;;;1.2;84.3;;;;;;;;;
2021/12/09 02:00:11;;;;;;;;;;;1.2;83.9;;;;;;;;;
2021/12/09 02:05:09;;;;;;;;;;;1.2;84.2;;;;;;;;;
2021/12/09 02:10:09;;;;;;;;;;;1.2;84.0;;;;;;;;;
2021/12/09 02:15:09;;;;;;;;;;;1.3;84.8;;;;;;;;;
2021/12/09 02:20:08;;;;;;;;;;;1.2;84.0;;;;;;;;;
2021/12/09 02:25:08;;;;;;;;;;;1.3;83.9;;;;;;;;;
2021/12/09 02:30:08;;;;;;;;;;;1.3;83.7;;;;;;;;;
2021/12/09 02:35:08;;;;;;;;;;;1.3;83.5;;;;;;;;;
2021/12/09 02:40:09;;;;;;;;;;;1.3;83.4;;;;;;;;;
2021/12/09 02:50:09;;;;;;;;;;;1.3;84.1;;;;;;;;;
2021/12/09 02:55:08;;;;;;;;;;;1.2;83.6;;;;;;;;;
2021/12/09 03:00:08;;;;;;;;;;;1.2;84.1;;;;;;;;;
2021/12/09 03:05:07;;;;;;;;;;;1.1;84.1;;;;;;;;;
2021/12/09 03:10:10;;;;;;;;;;;1.2;84.4;;;;;;;;;
2021/12/09 03:15:08;;;;;;;;;;;1.2;83.8;;;;;;;;;
2021/12/09 03:20:09;;;;;;;;;;;1.2;83.7;;;;;;;;;
2021/12/09 03:25:09;;;;;;;;;;;1.2;84.3;;;;;;;;;
2021/12/09 03:30:09;;;;;;;;;;;1.2;84.3;;;;;;;;;
2021/12/09 03:35:08;;;;;;;;;;;1.2;84.2;;;;;;;;;
2021/12/09 03:40:09;;;;;;;;;;;1.2;84.0;;;;;;;;;
2021/12/09 03:45:08;;;;;;;;;;;1.2;83.8;;;;;;;;;
2021/12/09 03:50:11;;;;;;;;;;;1.1;84.1;;;;;;;;;
2021/12/09 03:55:08;;;;;;;;;;;1.2;84.0;;;;;;;;;
2021/12/09 04:00:08;;;;;;;;;;;1.2;83.9;;;;;;;;;
2021/12/09 04:05:08;;;;;;;;;;;1.2;83.8;;;;;;;;;
2021/12/09 04:10:08;;;;;;;;;;;1.2;84.1;;;;;;;;;
2021/12/09 04:15:08;;;;;;;;;;;1.2;84.0;;;;;;;;;
2021/12/09 04:20:08;;;;;;;;;;;1.2;84.3;;;;;;;;;
2021/12/09 04:25:08;;;;;;;;;;;1.3;83.8;;;;;;;;;
2021/12/09 04:30:08;;;;;;;;;;;1.2;84.2;;;;;;;;;
2021/12/09 04:35:09;;;;;;;;;;;1.2;84.5;;;;;;;;;
2021/12/09 04:40:09;;;;;;;;;;;1.1;84.6;;;;;;;;;
2021/12/09 04:45:08;;;;;;;;;;;1.2;85.0;;;;;;;;;
2021/12/09 04:50:09;;;;;;;;;;;1.2;84.5;;;;;;;;;
2021/12/09 04:55:08;;;;;;;;;;;1.1;85.0;;;;;;;;;
2021/12/09 05:00:09;;;;;;;;;;;1.1;85.0;;;;;;;;;
2021/12/09 05:05:08;;;;;;;;;;;1.2;84.3;;;;;;;;;
2021/12/09 05:10:08;;;;;;;;;;;1.2;84.5;;;;;;;;;
2021/12/09 05:15:08;;;;;;;;;;;1.2;84.8;;;;;;;;;
2021/12/09 05:20:08;;;;;;;;;;;1.2;86.1;;;;;;;;;
2021/12/09 05:25:07;;;;;;;;;;;1.2;85.5;;;;;;;;;
2021/12/09 05:30:12;;;;;;;;;;;1.2;85.0;;;;;;;;;
2021/12/09 05:35:08;;;;;;;;;;;1.2;85.0;;;;;;;;;
2021/12/09 05:40:08;;;;;;;;;;;1.2;84.7;;;;;;;;;
2021/12/09 05:45:08;;;;;;;;;;;1.2;85.2;;;;;;;;;
2021/12/09 05:50:08;;;;;;;;;;;1.2;84.4;;;;;;;;;
2021/12/09 05:55:08;;;;;;;;;;;1.2;84.8;;;;;;;;;
2021/12/09 06:00:08;;;;;;;;;;;1.2;84.5;;;;;;;;;
2021/12/09 06:05:08;;;;;;;;;;;1.2;84.4;;;;;;;;;
2021/12/09 06:10:08;;;;;;;;;;;1.3;84.2;;;;;;;;;
2021/12/09 06:20:08;;;;;;;;;;;1.2;84.6;;;;;;;;;
2021/12/09 06:25:09;;;;;;;;;;;1.2;84.8;;;;;;;;;
2021/12/09 06:30:08;;;;;;;;;;;1.3;84.4;;;;;;;;;
2021/12/09 06:35:08;;;;;;;;;;;1.3;84.0;;;;;;;;;
2021/12/09 06:40:08;;;;;;;;;;;1.3;84.3;;;;;;;;;
2021/12/09 06:45:08;;;;;;;;;;;1.3;84.8;;;;;;;;;
2021/12/09 06:50:09;;;;;;;;;;;1.3;84.4;;;;;;;;;
2021/12/09 06:55:09;;;;;;;;;;;1.4;84.9;;;;;;;;;
2021/12/09 07:00:09;;;;;;;;;;;1.2;84.4;;;;;;;;;
2021/12/09 07:05:08;;;;;;;;;;;1.2;84.6;;;;;;;;;
2021/12/09 07:10:09;;;;;;;;;;;1.1;84.5;;;;;;;;;
2021/12/09 07:15:09;;;;;;;;;;;1.2;85.1;;;;;;;;;
2021/12/09 07:20:09;;;;;;;;;;;1.2;84.8;;;;;;;;;
2021/12/09 07:25:08;;;;;;;;;;;1.2;84.8;;;;;;;;;
2021/12/09 07:30:09;;;;;;;;;;;1.3;84.5;;;;;;;;;
2021/12/09 07:35:08;;;;;;;;;;;1.3;84.9;;;;;;;;;
2021/12/09 07:40:09;;;;;;;;;;;1.3;84.3;;;;;;;;;
2021/12/09 07:45:09;;;;;;;;;;;1.2;84.7;;;;;;;;;
2021/12/09 07:50:11;;;;;;;;;;;1.2;85.5;;;;;;;;;
2021/12/09 07:55:09;;;;;;;;;;;1.2;85.1;;;;;;;;;
2021/12/09 08:00:12;;;;;;;;;;;1.2;85.9;;;;;;;;;
2021/12/09 08:05:08;;;;;;;;;;;1.2;84.9;;;;;;;;;
2021/12/09 08:10:08;;;;;;;;;;;1.2;84.9;;;;;;;;;
2021/12/09 08:15:09;;;;;;;;;;;1.2;85.3;;;;;;;;;
2021/12/09 08:20:11;;;;;;;;;;;1.2;84.9;;;;;;;;;
2021/12/09 08:25:09;;;;;;;;;;;1.2;85.1;;;;;;;;;
2021/12/09 08:30:08;;;;;;;;;;;1.2;84.7;;;;;;;;;
2021/12/09 08:35:08;;;;;;;;;;;1.2;84.8;;;;;;;;;
2021/12/09 08:40:08;;;;;;;;;;;1.2;84.9;;;;;;;;;
2021/12/09 08:45:10;;;;;;;;;;;1.2;85.1;;;;;;;;;
2021/12/09 08:50:10;;;;;;;;;;;1.3;85.0;;;;;;;;;
2021/12/09 08:55:08;;;;;;;;;;;1.3;84.7;;;;;;;;;
2021/12/09 09:00:09;;;;;;;;;;;1.2;84.8;;;;;;;;;
2021/12/09 09:05:11;;;;;;;;;;;1.3;84.8;;;;;;;;;
2021/12/09 09:10:08;;;;;;;;;;;1.3;84.3;;;;;;;;;
2021/12/09 09:15:09;;;;;;;;;;;1.3;84.8;;;;;;;;;
2021/12/09 09:20:09;;;;;;;;;;;1.3;84.4;;;;;;;;;
2021/12/09 09:25:09;;;;;;;;;;;1.4;84.5;;;;;;;;;
2021/12/09 09:30:08;;;;;;;;;;;1.4;84.0;;;;;;;;;
2021/12/09 09:35:09;;;;;;;;;;;1.4;84.4;;;;;;;;;
2021/12/09 09:45:10;;;;;;;;;;;1.4;84.6;;;;;;;;;
2021/12/09 09:50:09;;;;;;;;;;;1.5;84.1;;;;;;;;;
2021/12/09 09:55:09;;;;;;;;;;;1.5;84.2;;;;;;;;;
2021/12/09 10:00:09;;;;;;;;;;;1.5;84.4;;;;;;;;;
2021/12/09 10:05:08;;;;;;;;;;;1.5;84.2;;;;;;;;;
2021/12/09 10:10:08;;;;;;;;;;;1.6;83.6;;;;;;;;;
2021/12/09 10:15:08;;;;;;;;;;;1.6;84.1;;;;;;;;;
2021/12/09 10:20:08;;;;;;;;;;;1.7;83.2;;;;;;;;;
2021/12/09 10:25:17;;;;;;;;;;;1.7;83.6;;;;;;;;;
2021/12/09 10:30:15;;;;;;;;;;;1.8;83.0;;;;;;;;;
2021/12/09 10:35:09;;;;;;;;;;;1.8;82.8;;;;;;;;;
2021/12/09 10:40:09;;;;;;;;;;;1.8;82.8;;;;;;;;;
2021/12/09 10:45:08;;;;;;;;;;;1.8;82.2;;;;;;;;;
2021/12/09 10:50:15;;;;;;;;;;;1.7;82.6;;;;;;;;;
2021/12/09 10:55:10;;;;;;;;;;;1.8;82.9;;;;;;;;;
2021/12/09 11:00:25;;;;;;;;;;;1.9;82.5;;;;;;;;;
2021/12/09 11:05:08;;;;;;;;;;;1.9;82.0;;;;;;;;;
2021/12/09 11:15:07;;;;;;;;;;;1.9;81.8;;;;;;;;;
2021/12/09 11:20:08;;;;;;;;;;;1.9;82.3;;;;;;;;;
2021/12/09 11:25:30;;;;;;;;;;;2.0;81.7;;;;;;;;;
2021/12/09 11:30:10;;;;;;;;;;;2.0;81.4;;;;;;;;;
2021/12/09 11:35:13;;;;;;;;;;;1.9;81.1;;;;;;;;;
2021/12/09 11:40:10;;;;;;;;;;;1.9;83.4;;;;;;;;;
2021/12/09 11:45:09;;;;;;;;;;;1.9;82.2;;;;;;;;;
2021/12/09 11:50:09;;;;;;;;;;;2.0;82.3;;;;;;;;;
2021/12/09 11:55:09;;;;;;;;;;;1.9;82.4;;;;;;;;;
2021/12/09 12:15:29;;;;;;;;;;;2.1;81.0;;;;;;;;;
2021/12/09 12:20:19;;;;;;;;;;;2.1;80.8;;;;;;;;;
2021/12/09 12:25:23;;;;;;;;;;;2.1;80.7;;;;;;;;;
2021/12/09 12:30:26;;;;;;;;;;;2.1;81.2;;;;;;;;;
2021/12/09 12:35:44;;;;;;;;;;;2.1;81.2;;;;;;;;;
2021/12/09 12:40:10;;;;;;;;;;;2.1;81.1;;;;;;;;;
2021/12/09 12:45:13;;;;;;;;;;;2.0;81.6;;;;;;;;;
2021/12/09 12:50:09;;;;;;;;;;;2.1;80.9;;;;;;;;;
2021/12/09 12:55:11;;;;;;;;;;;2.1;80.8;;;;;;;;;
2021/12/09 13:00:14;;;;;;;;;;;2.2;80.3;;;;;;;;;
2021/12/09 13:05:21;;;;;;;;;;;2.1;81.2;;;;;;;;;
2021/12/09 13:10:28;;;;;;;;;;;2.2;80.8;;;;;;;;;
2021/12/09 13:15:09;;;;;;;;;;;2.1;81.1;;;;;;;;;
2021/12/09 13:20:24;;;;;;;;;;;2.2;80.0;;;;;;;;;
2021/12/09 13:25:17;;;;;;;;;;;2.3;79.6;;;;;;;;;
2021/12/09 13:30:21;;;;;;;;;;;2.2;79.5;;;;;;;;;
2021/12/09 13:35:10;;;;;;;;;;;2.2;79.4;;;;;;;;;
2021/12/09 13:40:28;;;;;;;;;;;2.1;79.9;;;;;;;;;
2021/12/09 13:50:32;;;;;;;;;;;2.1;79.0;;;;;;;;;
2021/12/09 13:55:08;;;;;;;;;;;2.1;79.2;;;;;;;;;
2021/12/09 14:00:10;;;;;;;;;;;2.0;79.9;;;;;;;;;
2021/12/09 14:05:14;;;;;;;;;;;2.0;79.4;;;;;;;;;
2021/12/09 14:10:12;;;;;;;;;;;2.0;80.1;;;;;;;;;
2021/12/09 14:15:12;;;;;;;;;;;2.1;79.3;;;;;;;;;
2021/12/09 14:20:16;;;;;;;;;;;2.0;78.9;;;;;;;;;
2021/12/09 14:25:10;;;;;;;;;;;1.9;79.2;;;;;;;;;
2021/12/09 14:30:09;;;;;;;;;;;2.0;79.1;;;;;;;;;
2021/12/09 14:35:08;;;;;;;;;;;1.9;79.6;;;;;;;;;
2021/12/09 14:40:10;;;;;;;;;;;1.9;79.4;;;;;;;;;
2021/12/09 14:45:08;;;;;;;;;;;1.9;79.3;;;;;;;;;
2021/12/09 14:50:08;;;;;;;;;;;1.9;79.0;;;;;;;;;
2021/12/09 14:55:09;;;;;;;;;;;1.9;79.5;;;;;;;;;
2021/12/09 15:00:08;;;;;;;;;;;1.9;78.9;;;;;;;;;
2021/12/09 15:05:11;;;;;;;;;;;1.9;79.3;;;;;;;;;
2021/12/09 15:10:09;;;;;;;;;;;1.8;79.7;;;;;;;;;
2021/12/09 15:15:16;;;;;;;;;;;1.9;79.3;;;;;;;;;
2021/12/09 15:20:09;;;;;;;;;;;1.9;79.2;;;;;;;;;
2021/12/09 15:25:09;;;;;;;;;;;1.8;79.0;;;;;;;;;
2021/12/09 15:35:13;;;;;;;;;;;1.8;79.6;;;;;;;;;
2021/12/09 15:40:08;;;;;;;;;;;1.8;79.2;;;;;;;;;
2021/12/09 15:45:08;;;;;;;;;;;1.7;79.5;;;;;;;;;
2021/12/09 15:50:09;;;;;;;;;;;1.7;79.1;;;;;;;;;
2021/12/09 15:55:10;;;;;;;;;;;1.7;79.0;;;;;;;;;
2021/12/09 16:00:09;;;;;;;;;;;1.8;78.9;;;;;;;;;
2021/12/09 16:05:09;;;;;;;;;;;1.8;79.2;;;;;;;;;
2021/12/09 16:10:08;;;;;;;;;;;1.8;78.6;;;;;;;;;
2021/12/09 16:15:12;;;;;;;;;;;1.7;79.1;;;;;;;;;
2021/12/09 16:20:09;;;;;;;;;;;1.8;78.7;;;;;;;;;
2021/12/09 16:25:09;;;;;;;;;;;1.8;78.8;;;;;;;;;
2021/12/09 16:30:09;;;;;;;;;;;1.8;78.5;;;;;;;;;
2021/12/09 16:35:09;;;;;;;;;;;1.7;79.1;;;;;;;;;
2021/12/09 16:40:09;;;;;;;;;;;1.7;78.9;;;;;;;;;
2021/12/09 16:45:08;;;;;;;;;;;1.6;79.4;;;;;;;;;
2021/12/09 16:50:08;;;;;;;;;;;1.7;78.9;;;;;;;;;
2021/12/09 16:55:13;;;;;;;;;;;1.7;78.7;;;;;;;;;
2021/12/09 17:00:08;;;;;;;;;;;1.6;78.9;;;;;;;;;
2021/12/09 17:05:07;;;;;;;;;;;1.6;79.2;;;;;;;;;
2021/12/09 17:10:10;;;;;;;;;;;1.6;78.5;;;;;;;;;
2021/12/09 17:15:10;;;;;;;;;;;1.6;78.9;;;;;;;;;
2021/12/09 17:20:09;;;;;;;;;;;1.6;78.8;;;;;;;;;
2021/12/09 17:25:08;;;;;;;;;;;1.5;79.4;;;;;;;;;
2021/12/09 17:30:09;;;;;;;;;;;1.6;79.2;;;;;;;;;
2021/12/09 17:35:08;;;;;;;;;;;1.6;79.7;;;;;;;;;
2021/12/09 17:40:08;;;;;;;;;;;1.6;79.7;;;;;;;;;
2021/12/09 17:45:09;;;;;;;;;;;1.5;79.6;;;;;;;;;
2021/12/09 17:50:08;;;;;;;;;;;1.6;79.1;;;;;;;;;
2021/12/09 17:55:09;;;;;;;;;;;1.6;78.7;;;;;;;;;
2021/12/09 18:00:09;;;;;;;;;;;1.7;79.0;;;;;;;;;
2021/12/09 18:05:10;;;;;;;;;;;1.7;78.7;;;;;;;;;
2021/12/09 18:10:08;;;;;;;;;;;1.7;78.9;;;;;;;;;
2021/12/09 18:15:11;;;;;;;;;;;1.7;78.7;;;;;;;;;
2021/12/09 18:20:10;;;;;;;;;;;1.6;78.4;;;;;;;;;
2021/12/09 18:25:10;;;;;;;;;;;1.6;78.6;;;;;;;;;
2021/12/09 18:30:10;;;;;;;;;;;1.6;78.9;;;;;;;;;
2021/12/09 18:35:09;;;;;;;;;;;1.5;78.7;;;;;;;;;
2021/12/09 18:40:08;;;;;;;;;;;1.5;79.2;;;;;;;;;
2021/12/09 18:45:09;;;;;;;;;;;1.5;79.1;;;;;;;;;
2021/12/09 18:50:09;;;;;;;;;;;1.5;78.9;;;;;;;;;
2021/12/09 18:55:08;;;;;;;;;;;1.6;79.0;;;;;;;;;
2021/12/09 19:00:09;;;;;;;;;;;1.6;78.4;;;;;;;;;
2021/12/09 19:05:09;;;;;;;;;;;1.6;78.5;;;;;;;;;
2021/12/09 19:10:09;;;;;;;;;;;1.5;78.4;;;;;;;;;
2021/12/09 19:20:10;;;;;;;;;;;1.5;78.3;;;;;;;;;
2021/12/09 19:25:08;;;;;;;;;;;1.5;78.7;;;;;;;;;
2021/12/09 19:30:10;;;;;;;;;;;1.5;78.3;;;;;;;;;
2021/12/09 19:35:09;;;;;;;;;;;1.5;77.7;;;;;;;;;
2021/12/09 19:40:08;;;;;;;;;;;1.5;78.1;;;;;;;;;
2021/12/09 19:45:09;;;;;;;;;;;1.5;77.7;;;;;;;;;
2021/12/09 19:55:08;;;;;;;;;;;1.5;77.5;;;;;;;;;
2021/12/09 20:00:09;;;;;;;;;;;1.5;77.5;;;;;;;;;
2021/12/09 20:05:08;;;;;;;;;;;1.5;77.2;;;;;;;;;
2021/12/09 20:10:08;;;;;;;;;;;1.5;77.1;;;;;;;;;
2021/12/09 20:15:08;;;;;;;;;;;1.5;77.3;;;;;;;;;
2021/12/09 20:20:09;;;;;;;;;;;1.5;76.8;;;;;;;;;
2021/12/09 20:25:09;;;;;;;;;;;1.5;77.0;;;;;;;;;
2021/12/09 20:30:08;;;;;;;;;;;1.5;76.4;;;;;;;;;
2021/12/09 20:35:08;;;;;;;;;;;1.5;75.8;;;;;;;;;
2021/12/09 20:40:08;;;;;;;;;;;1.4;76.5;;;;;;;;;
2021/12/09 20:45:08;;;;;;;;;;;1.5;75.7;;;;;;;;;
2021/12/09 20:50:09;;;;;;;;;;;1.5;75.7;;;;;;;;;
2021/12/09 20:55:08;;;;;;;;;;;1.5;75.6;;;;;;;;;
2021/12/09 21:00:09;;;;;;;;;;;1.5;75.0;;;;;;;;;
2021/12/09 21:05:08;;;;;;;;;;;1.6;76.4;;;;;;;;;
2021/12/09 21:10:10;;;;;;;;;;;1.7;75.1;;;;;;;;;
2021/12/09 21:15:09;;;;;;;;;;;1.6;74.4;;;;;;;;;
2021/12/09 21:20:09;;;;;;;;;;;1.6;73.6;;;;;;;;;
2021/12/09 21:25:09;;;;;;;;;;;1.5;73.2;;;;;;;;;
2021/12/09 21:30:09;;;;;;;;;;;1.5;72.9;;;;;;;;;
2021/12/09 21:35:12;;;;;;;;;;;1.3;73.5;;;;;;;;;
2021/12/09 21:40:09;;;;;;;;;;;1.3;73.6;;;;;;;;;
2021/12/09 21:45:08;;;;;;;;;;;1.3;73.4;;;;;;;;;
2021/12/09 21:50:08;;;;;;;;;;;1.2;73.4;;;;;;;;;
2021/12/09 21:55:08;;;;;;;;;;;1.1;74.1;;;;;;;;;
2021/12/09 22:00:09;;;;;;;;;;;1.0;73.8;;;;;;;;;
2021/12/09 22:05:08;;;;;;;;;;;1.0;74.2;;;;;;;;;
2021/12/09 22:10:09;;;;;;;;;;;1.0;74.1;;;;;;;;;
2021/12/09 22:15:15;;;;;;;;;;;1.0;74.2;;;;;;;;;
2021/12/09 22:20:08;;;;;;;;;;;1.0;73.9;;;;;;;;;
2021/12/09 22:25:08;;;;;;;;;;;1.1;73.6;;;;;;;;;
2021/12/09 22:30:08;;;;;;;;;;;1.0;73.6;;;;;;;;;
2021/12/09 22:35:08;;;;;;;;;;;1.0;73.1;;;;;;;;;
2021/12/09 22:40:09;;;;;;;;;;;0.9;72.9;;;;;;;;;
2021/12/09 22:45:08;;;;;;;;;;;1.0;73.3;;;;;;;;;
2021/12/09 22:50:09;;;;;;;;;;;0.9;73.3;;;;;;;;;
2021/12/09 22:55:09;;;;;;;;;;;0.9;73.0;;;;;;;;;
2021/12/09 23:00:16;;;;;;;;;;;0.9;72.5;;;;;;;;;
2021/12/09 23:05:07;;;;;;;;;;;1.0;72.5;;;;;;;;;
2021/12/09 23:10:08;;;;;;;;;;;1.0;72.2;;;;;;;;;
2021/12/09 23:15:08;;;;;;;;;;;1.0;72.0;;;;;;;;;
2021/12/09 23:20:08;;;;;;;;;;;0.9;72.8;;;;;;;;;
2021/12/09 23:25:07;;;;;;;;;;;0.9;72.4;;;;;;;;;
2021/12/09 23:30:08;;;;;;;;;;;1.0;72.2;;;;;;;;;
2021/12/09 23:35:07;;;;;;;;;;;0.9;72.3;;;;;;;;;
2021/12/09 23:40:08;;;;;;;;;;;0.9;72.3;;;;;;;;;
2021/12/09 23:45:07;;;;;;;;;;;1.0;72.3;;;;;;;;;
2021/12/09 23:50:10;;;;;;;;;;;1.1;71.7;;;;;;;;;
2021/12/09 23:55:09;;;;;;;;;;;1.0;71.7;;;;;;;;;
